createdAt,value
2018-12-06T00:00:55.272Z,12.20
2018-12-06T00:03:23.623Z,12.60
2018-12-06T00:05:52.100Z,13.40
2018-12-06T00:08:20.641Z,12.40
2018-12-06T00:10:49.426Z,12.80
2018-12-06T00:13:17.871Z,12.63
2018-12-06T00:15:46.370Z,13.70
2018-12-06T00:18:14.814Z,12.97
2018-12-06T00:20:43.289Z,13.57
2018-12-06T00:23:11.685Z,14.03
2018-12-06T00:25:40.077Z,13.80
2018-12-06T00:28:09.470Z,14.20
2018-12-06T00:30:41.728Z,13.47
2018-12-06T00:33:10.463Z,13.40
2018-12-06T00:35:39.691Z,13.03
2018-12-06T00:38:08.192Z,12.87
2018-12-06T00:40:37.931Z,13.33
2018-12-06T00:43:07.386Z,14.13
2018-12-06T00:45:37.162Z,13.87
2018-12-06T00:48:05.568Z,15.10
2018-12-06T00:50:35.373Z,14.20
2018-12-06T00:53:04.797Z,14.27
2018-12-06T00:55:34.592Z,13.23
2018-12-06T00:58:03.572Z,13.53
2018-12-06T01:00:37.557Z,15.00
2018-12-06T01:03:06.558Z,14.30
2018-12-06T01:05:35.376Z,13.90
2018-12-06T01:08:04.197Z,12.73
2018-12-06T01:10:32.627Z,13.50
2018-12-06T01:13:01.008Z,14.07
2018-12-06T01:15:29.417Z,13.83
2018-12-06T01:17:57.893Z,13.83
2018-12-06T01:20:26.296Z,13.13
2018-12-06T01:22:54.687Z,14.00
2018-12-06T01:25:23.125Z,15.07
2018-12-06T01:27:51.676Z,13.80
2018-12-06T01:30:20.072Z,13.73
2018-12-06T01:32:48.438Z,13.77
2018-12-06T01:35:16.996Z,13.87
2018-12-06T01:37:45.380Z,14.23
2018-12-06T01:40:13.910Z,14.03
2018-12-06T01:42:42.283Z,13.77
2018-12-06T01:45:10.680Z,14.47
2018-12-06T01:47:39.101Z,13.93
2018-12-06T01:50:07.895Z,14.30
2018-12-06T01:52:36.392Z,13.67
2018-12-06T01:55:05.655Z,14.53
2018-12-06T01:57:34.029Z,14.43
2018-12-06T02:00:02.426Z,13.53
2018-12-06T02:02:30.784Z,13.77
2018-12-06T02:04:59.160Z,12.90
2018-12-06T02:07:27.495Z,13.40
2018-12-06T02:09:56.072Z,14.37
2018-12-06T02:12:24.441Z,14.33
2018-12-06T02:14:52.800Z,14.10
2018-12-06T02:17:21.137Z,16.90
2018-12-06T02:19:49.494Z,16.90
2018-12-06T02:22:17.826Z,15.60
2018-12-06T02:24:46.192Z,15.83
2018-12-06T02:27:14.558Z,15.43
2018-12-06T02:29:48.809Z,15.07
2018-12-06T02:32:17.133Z,15.67
2018-12-06T02:34:45.476Z,14.90
2018-12-06T02:37:13.850Z,15.67
2018-12-06T02:39:42.203Z,14.27
2018-12-06T02:42:10.569Z,14.67
2018-12-06T02:44:39.136Z,13.87
2018-12-06T02:47:07.475Z,13.73
2018-12-06T02:49:36.240Z,13.23
2018-12-06T02:52:04.738Z,13.93
2018-12-06T02:54:33.064Z,14.63
2018-12-06T02:57:01.412Z,13.63
2018-12-06T02:59:29.762Z,13.77
2018-12-06T03:01:58.138Z,14.03
2018-12-06T03:04:26.482Z,13.43
2018-12-06T03:06:54.862Z,13.40
2018-12-06T03:09:23.191Z,13.57
2018-12-06T03:11:51.549Z,13.87
2018-12-06T03:14:19.881Z,14.27
2018-12-06T03:16:48.277Z,15.20
2018-12-06T03:19:16.721Z,14.47
2018-12-06T03:21:45.103Z,13.50
2018-12-06T03:24:13.565Z,13.50
2018-12-06T03:26:42.085Z,13.67
2018-12-06T03:29:10.417Z,14.33
2018-12-06T03:31:38.769Z,13.07
2018-12-06T03:34:07.124Z,14.40
2018-12-06T03:36:35.474Z,13.37
2018-12-06T03:39:06.826Z,14.80
2018-12-06T03:41:35.204Z,13.27
2018-12-06T03:44:03.697Z,14.13
2018-12-06T03:46:32.075Z,13.93
2018-12-06T03:49:00.535Z,15.03
2018-12-06T03:51:29.014Z,14.43
2018-12-06T03:53:57.372Z,13.23
2018-12-06T03:56:25.715Z,14.60
2018-12-06T03:58:54.076Z,14.30
2018-12-06T04:01:22.445Z,14.53
2018-12-06T04:03:50.802Z,15.77
2018-12-06T04:06:19.153Z,15.00
2018-12-06T04:08:47.513Z,14.50
2018-12-06T04:11:15.978Z,14.73
2018-12-06T04:13:44.345Z,14.43
2018-12-06T04:16:12.710Z,14.53
2018-12-06T04:18:41.088Z,15.30
2018-12-06T04:21:09.433Z,14.97
2018-12-06T04:23:37.818Z,15.20
2018-12-06T04:26:06.204Z,15.33
2018-12-06T04:28:34.605Z,15.17
2018-12-06T04:31:02.961Z,15.13
2018-12-06T04:33:31.420Z,15.37
2018-12-06T04:36:00.000Z,13.97
2018-12-06T04:38:28.381Z,15.50
2018-12-06T04:40:56.905Z,14.70
2018-12-06T04:43:25.278Z,15.83
2018-12-06T04:45:53.655Z,15.87
2018-12-06T04:48:22.404Z,15.97
2018-12-06T04:50:51.018Z,15.27
2018-12-06T04:53:19.438Z,16.43
2018-12-06T04:55:47.806Z,15.93
2018-12-06T04:58:16.165Z,15.60
2018-12-06T05:00:44.585Z,16.07
2018-12-06T05:03:12.950Z,15.57
2018-12-06T05:05:41.364Z,15.33
2018-12-06T05:08:09.804Z,16.03
2018-12-06T05:10:38.204Z,15.67
2018-12-06T05:13:06.571Z,15.60
2018-12-06T05:15:35.140Z,15.53
2018-12-06T05:18:03.497Z,16.37
2018-12-06T05:20:31.888Z,14.73
2018-12-06T05:23:00.268Z,15.67
2018-12-06T05:25:28.637Z,15.57
2018-12-06T05:27:56.996Z,16.50
2018-12-06T05:30:25.430Z,14.93
2018-12-06T05:32:53.817Z,15.97
2018-12-06T05:35:22.185Z,15.73
2018-12-06T05:37:50.601Z,15.60
2018-12-06T05:40:18.974Z,16.10
2018-12-06T05:42:47.337Z,15.87
2018-12-06T05:45:15.724Z,16.67
2018-12-06T05:47:44.084Z,16.67
2018-12-06T05:50:12.467Z,16.07
2018-12-06T05:52:40.851Z,16.50
2018-12-06T05:55:09.345Z,16.17
2018-12-06T05:57:37.748Z,15.37
2018-12-06T06:00:07.342Z,15.40
2018-12-06T06:02:35.712Z,15.90
2018-12-06T06:05:05.137Z,15.87
2018-12-06T06:07:33.528Z,16.57
2018-12-06T06:10:01.923Z,16.07
2018-12-06T06:12:30.310Z,16.10
2018-12-06T06:14:58.680Z,16.53
2018-12-06T06:17:27.086Z,16.07
2018-12-06T06:19:55.534Z,16.63
2018-12-06T06:22:24.476Z,16.80
2018-12-06T06:24:53.018Z,16.63
2018-12-06T06:27:21.595Z,16.13
2018-12-06T06:29:49.973Z,16.30
2018-12-06T06:32:19.069Z,16.00
2018-12-06T06:34:47.554Z,15.70
2018-12-06T06:37:16.007Z,16.60
2018-12-06T06:39:44.414Z,16.50
2018-12-06T06:42:12.954Z,16.30
2018-12-06T06:44:41.329Z,16.77
2018-12-06T06:47:09.754Z,16.37
2018-12-06T06:49:38.122Z,16.77
2018-12-06T06:52:06.556Z,19.23
2018-12-06T06:54:34.937Z,17.10
2018-12-06T06:57:03.317Z,16.23
2018-12-06T06:59:31.689Z,16.93
2018-12-06T07:02:00.094Z,17.17
2018-12-06T07:04:29.392Z,16.97
2018-12-06T07:06:57.749Z,17.03
2018-12-06T07:09:26.151Z,16.23
2018-12-06T07:11:54.798Z,16.47
2018-12-06T07:14:23.213Z,16.57
2018-12-06T07:16:51.772Z,16.03
2018-12-06T07:19:20.200Z,17.90
2018-12-06T07:21:48.685Z,16.57
2018-12-06T07:24:17.106Z,15.77
2018-12-06T07:26:47.675Z,15.93
2018-12-06T07:29:16.269Z,15.83
2018-12-06T07:31:44.698Z,15.37
2018-12-06T07:34:13.093Z,15.47
2018-12-06T07:36:41.460Z,15.50
2018-12-06T07:39:10.101Z,14.80
2018-12-06T07:41:38.576Z,15.60
2018-12-06T07:44:07.111Z,15.27
2018-12-06T07:46:35.505Z,14.53
2018-12-06T07:49:03.917Z,13.83
2018-12-06T07:51:32.324Z,14.07
2018-12-06T07:54:00.731Z,14.30
2018-12-06T07:56:31.068Z,14.53
2018-12-06T07:58:59.465Z,15.03
2018-12-06T08:01:27.812Z,13.77
2018-12-06T08:03:57.189Z,13.00
2018-12-06T08:06:25.871Z,13.13
2018-12-06T08:08:54.390Z,12.30
2018-12-06T08:11:23.008Z,13.50
2018-12-06T08:13:51.474Z,13.77
2018-12-06T08:16:20.611Z,12.47
2018-12-06T08:18:48.968Z,12.30
2018-12-06T08:21:17.348Z,11.80
2018-12-06T08:23:45.738Z,12.00
2018-12-06T08:26:14.141Z,11.80
2018-12-06T08:28:42.500Z,11.93
2018-12-06T08:31:10.872Z,12.10
2018-12-06T08:33:39.311Z,11.57
2018-12-06T08:36:07.736Z,10.50
2018-12-06T08:38:36.322Z,13.10
2018-12-06T08:41:04.750Z,11.83
2018-12-06T08:43:33.221Z,11.03
2018-12-06T08:46:01.673Z,10.37
2018-12-06T08:48:30.086Z,10.23
2018-12-06T08:50:58.531Z,10.70
2018-12-06T08:53:26.977Z,11.90
2018-12-06T08:55:55.380Z,10.17
2018-12-06T08:58:23.914Z,10.53
2018-12-06T09:00:52.321Z,10.33
2018-12-06T09:03:21.369Z,10.27
2018-12-06T09:05:49.777Z,10.23
2018-12-06T09:08:18.278Z,9.87
2018-12-06T09:10:51.447Z,10.20
2018-12-06T09:13:17.201Z,10.30
2018-12-06T09:15:45.626Z,10.03
2018-12-06T09:18:14.035Z,9.70
2018-12-06T09:20:42.552Z,9.47
2018-12-06T09:23:10.910Z,9.77
2018-12-06T09:25:39.353Z,9.80
2018-12-06T09:28:07.794Z,9.20
2018-12-06T09:30:36.231Z,9.57
2018-12-06T09:33:04.700Z,9.50
2018-12-06T09:35:33.243Z,9.23
2018-12-06T09:38:01.636Z,9.33
2018-12-06T09:40:30.047Z,9.80
2018-12-06T09:42:58.429Z,9.63
2018-12-06T09:45:26.831Z,9.87
2018-12-06T09:47:55.267Z,9.60
2018-12-06T09:50:23.673Z,9.27
2018-12-06T09:52:52.081Z,9.40
2018-12-06T09:55:20.516Z,9.50
2018-12-06T09:57:48.969Z,8.97
2018-12-06T10:00:18.160Z,9.37
2018-12-06T10:02:46.573Z,9.97
2018-12-06T10:05:14.988Z,9.40
2018-12-06T10:07:43.421Z,9.50
2018-12-06T10:10:11.805Z,8.77
2018-12-06T10:12:40.486Z,10.03
2018-12-06T10:15:08.984Z,8.97
2018-12-06T10:17:37.370Z,9.20
2018-12-06T10:20:08.405Z,9.50
2018-12-06T10:22:36.817Z,10.73
2018-12-06T10:25:06.472Z,12.97
2018-12-06T10:27:34.916Z,14.20
2018-12-06T10:30:03.628Z,18.17
2018-12-06T10:32:32.054Z,20.00
2018-12-06T10:35:00.434Z,24.17
2018-12-06T10:37:28.887Z,26.33
2018-12-06T10:39:57.356Z,26.73
2018-12-06T10:42:25.823Z,30.40
2018-12-06T10:44:54.223Z,30.27
2018-12-06T10:47:22.621Z,34.37
2018-12-06T10:49:51.013Z,33.23
2018-12-06T10:52:19.469Z,35.93
2018-12-06T10:54:47.893Z,38.07
2018-12-06T10:57:16.360Z,33.17
2018-12-06T10:59:45.216Z,33.37
2018-12-06T11:02:18.856Z,35.17
2018-12-06T11:04:47.355Z,37.73
2018-12-06T11:07:15.857Z,31.07
2018-12-06T11:09:44.266Z,23.87
2018-12-06T11:12:12.714Z,13.97
2018-12-06T11:14:41.146Z,12.00
2018-12-06T11:17:09.592Z,9.80
2018-12-06T11:19:37.999Z,11.33
2018-12-06T11:22:06.400Z,9.33
2018-12-06T11:24:34.796Z,14.13
2018-12-06T11:27:03.317Z,15.10
2018-12-06T11:29:31.727Z,9.80
2018-12-06T11:32:00.134Z,11.47
2018-12-06T11:35:00.851Z,10.40
2018-12-06T11:37:29.305Z,10.23
2018-12-06T11:40:00.833Z,8.83
2018-12-06T11:42:32.333Z,8.17
2018-12-06T11:45:01.339Z,9.43
2018-12-06T11:47:30.103Z,8.63
2018-12-06T11:49:58.568Z,7.30
2018-12-06T11:52:26.943Z,8.57
2018-12-06T11:54:55.413Z,8.77
2018-12-06T11:57:23.852Z,9.27
2018-12-06T11:59:52.265Z,8.40
2018-12-06T12:02:20.680Z,6.70
2018-12-06T12:04:49.144Z,7.20
2018-12-06T12:07:17.672Z,6.57
2018-12-06T12:09:46.097Z,8.33
2018-12-06T12:12:14.721Z,6.67
2018-12-06T12:14:43.172Z,6.33
2018-12-06T12:17:11.624Z,6.80
2018-12-06T12:19:40.836Z,6.37
2018-12-06T12:22:09.283Z,6.57
2018-12-06T12:24:37.702Z,6.70
2018-12-06T12:27:06.135Z,6.83
2018-12-06T12:29:34.536Z,6.87
2018-12-06T12:32:02.960Z,7.93
2018-12-06T12:34:31.366Z,11.07
2018-12-06T12:36:59.802Z,7.17
2018-12-06T12:39:28.191Z,8.23
2018-12-06T12:41:56.625Z,7.87
2018-12-06T12:44:25.147Z,7.93
2018-12-06T12:46:53.608Z,9.00
2018-12-06T12:49:22.117Z,9.03
2018-12-06T12:51:50.676Z,13.63
2018-12-06T12:54:19.258Z,19.57
2018-12-06T12:56:47.685Z,18.40
2018-12-06T12:59:16.302Z,14.93
2018-12-06T13:01:44.983Z,12.53
2018-12-06T13:04:13.372Z,10.37
2018-12-06T13:06:41.779Z,9.13
2018-12-06T13:09:10.227Z,8.97
2018-12-06T13:11:38.651Z,9.40
2018-12-06T13:14:07.004Z,8.83
2018-12-06T13:16:35.395Z,9.10
2018-12-06T13:19:03.840Z,9.43
2018-12-06T13:21:32.228Z,9.97
2018-12-06T13:24:01.329Z,8.20
2018-12-06T13:26:29.886Z,8.53
2018-12-06T13:28:58.277Z,9.70
2018-12-06T13:31:26.662Z,10.33
2018-12-06T13:33:55.094Z,11.17
2018-12-06T13:36:23.719Z,12.60
2018-12-06T13:38:52.164Z,15.60
2018-12-06T13:41:20.529Z,18.40
2018-12-06T13:43:48.931Z,17.30
2018-12-06T13:46:17.301Z,19.93
2018-12-06T13:48:45.709Z,20.37
2018-12-06T13:51:14.140Z,25.43
2018-12-06T13:53:42.777Z,23.17
2018-12-06T13:56:11.376Z,30.10
2018-12-06T13:58:39.771Z,33.47
2018-12-06T14:01:08.489Z,39.80
2018-12-06T14:03:37.143Z,44.07
2018-12-06T14:06:05.580Z,26.13
2018-12-06T14:08:34.001Z,33.20
2018-12-06T14:11:02.477Z,25.37
2018-12-06T14:13:30.910Z,20.53
2018-12-06T14:15:59.293Z,19.70
2018-12-06T14:18:27.723Z,9.13
2018-12-06T14:20:56.165Z,8.80
2018-12-06T14:23:24.776Z,7.93
2018-12-06T14:25:53.448Z,8.40
2018-12-06T14:28:22.314Z,7.50
2018-12-06T14:30:50.664Z,6.27
2018-12-06T14:33:19.096Z,6.20
2018-12-06T14:35:47.580Z,5.30
2018-12-06T14:38:15.953Z,5.97
2018-12-06T14:40:44.372Z,6.10
2018-12-06T14:43:13.082Z,6.57
2018-12-06T14:45:41.606Z,6.30
2018-12-06T14:48:10.321Z,6.13
2018-12-06T14:50:38.745Z,5.37
2018-12-06T14:53:07.118Z,5.43
2018-12-06T14:55:35.547Z,7.20
2018-12-06T14:58:04.118Z,6.57
2018-12-06T15:00:32.672Z,6.90
2018-12-06T15:03:01.320Z,7.47
2018-12-06T15:05:29.726Z,10.47
2018-12-06T15:07:58.128Z,8.07
2018-12-06T15:10:26.577Z,8.20
2018-12-06T15:12:55.035Z,7.47
2018-12-06T15:15:23.973Z,6.60
2018-12-06T15:17:52.429Z,6.07
2018-12-06T15:20:20.901Z,5.97
2018-12-06T15:22:49.407Z,6.80
2018-12-06T15:25:17.872Z,7.47
2018-12-06T15:27:46.597Z,6.33
2018-12-06T15:30:15.002Z,6.40
2018-12-06T15:32:43.439Z,6.93
2018-12-06T15:35:12.010Z,6.17
2018-12-06T15:37:40.465Z,7.73
2018-12-06T15:40:09.144Z,10.13
2018-12-06T15:42:39.197Z,7.60
2018-12-06T15:45:07.881Z,6.37
2018-12-06T15:47:36.913Z,6.53
2018-12-06T15:50:05.801Z,6.40
2018-12-06T15:52:34.191Z,6.10
2018-12-06T15:55:02.657Z,6.50
2018-12-06T15:57:31.052Z,5.90
2018-12-06T15:59:59.447Z,5.90
2018-12-06T16:02:27.860Z,5.63
2018-12-06T16:04:56.339Z,7.17
2018-12-06T16:07:24.711Z,5.43
2018-12-06T16:09:53.117Z,6.33
2018-12-06T16:12:21.540Z,5.47
2018-12-06T16:14:49.968Z,6.10
2018-12-06T16:17:18.385Z,5.70
2018-12-06T16:19:46.828Z,5.17
2018-12-06T16:22:15.213Z,6.33
2018-12-06T16:24:43.577Z,6.20
2018-12-06T16:27:12.006Z,5.80
2018-12-06T16:29:40.513Z,6.00
2018-12-06T16:32:08.956Z,5.80
2018-12-06T16:34:37.348Z,6.17
2018-12-06T16:37:05.770Z,6.23
2018-12-06T16:39:34.228Z,6.77
2018-12-06T16:42:02.641Z,6.20
2018-12-06T16:44:31.063Z,6.57
2018-12-06T16:46:59.485Z,6.33
2018-12-06T16:49:28.181Z,6.30
2018-12-06T16:51:56.922Z,7.07
2018-12-06T16:54:25.403Z,6.40
2018-12-06T16:56:53.801Z,7.70
2018-12-06T16:59:22.190Z,8.90
2018-12-06T17:01:50.589Z,9.60
2018-12-06T17:04:19.011Z,7.57
2018-12-06T17:06:47.517Z,8.47
2018-12-06T17:09:15.903Z,7.03
2018-12-06T17:11:44.335Z,8.80
2018-12-06T17:14:12.693Z,7.20
2018-12-06T17:16:41.350Z,7.93
2018-12-06T17:19:09.871Z,11.43
2018-12-06T17:21:38.249Z,6.10
2018-12-06T17:24:06.624Z,6.67
2018-12-06T17:26:35.020Z,5.40
2018-12-06T17:29:03.553Z,5.20
2018-12-06T17:31:31.967Z,5.50
2018-12-06T17:34:00.397Z,4.90
2018-12-06T17:36:28.768Z,5.03
2018-12-06T17:38:57.477Z,5.27
2018-12-06T17:41:25.881Z,5.13
2018-12-06T17:43:54.474Z,4.73
2018-12-06T17:46:23.002Z,3.90
2018-12-06T17:48:51.433Z,4.13
2018-12-06T17:51:19.836Z,4.10
2018-12-06T17:53:52.223Z,3.60
2018-12-06T17:56:18.752Z,4.33
2018-12-06T17:58:47.155Z,4.50
2018-12-06T18:01:15.572Z,4.73
2018-12-06T18:03:43.968Z,5.07
2018-12-06T18:06:12.419Z,4.93
2018-12-06T18:08:40.982Z,4.57
2018-12-06T18:11:09.455Z,5.00
2018-12-06T18:13:37.845Z,4.43
2018-12-06T18:16:06.281Z,4.77
2018-12-06T18:18:40.395Z,4.37
2018-12-06T18:21:05.077Z,4.73
2018-12-06T18:23:33.425Z,4.50
2018-12-06T18:26:01.937Z,4.20
2018-12-06T18:28:30.478Z,4.73
2018-12-06T18:30:58.925Z,5.00
2018-12-06T18:33:27.426Z,5.03
2018-12-06T18:35:55.826Z,4.40
2018-12-06T18:38:24.452Z,4.37
2018-12-06T18:40:52.897Z,4.87
2018-12-06T18:43:21.286Z,4.57
2018-12-06T18:45:49.737Z,5.73
2018-12-06T18:48:18.099Z,6.27
2018-12-06T18:50:46.757Z,8.50
2018-12-06T18:53:15.192Z,5.50
2018-12-06T18:55:43.573Z,5.40
2018-12-06T18:58:12.115Z,4.97
2018-12-06T19:00:40.606Z,5.47
2018-12-06T19:03:08.985Z,4.63
2018-12-06T19:05:37.450Z,4.80
2018-12-06T19:08:05.837Z,4.80
2018-12-06T19:10:34.233Z,4.17
2018-12-06T19:13:02.626Z,4.07
2018-12-06T19:15:31.024Z,4.63
2018-12-06T19:17:59.399Z,4.60
2018-12-06T19:20:27.999Z,4.63
2018-12-06T19:22:56.462Z,4.50
2018-12-06T19:25:24.832Z,3.97
2018-12-06T19:27:53.240Z,4.30
2018-12-06T19:30:22.523Z,3.73
2018-12-06T19:32:57.702Z,3.90
2018-12-06T19:35:21.337Z,3.00
2018-12-06T19:37:50.115Z,3.90
2018-12-06T19:40:18.472Z,3.73
2018-12-06T19:42:46.847Z,5.33
2018-12-06T19:45:15.212Z,3.80
2018-12-06T19:47:43.636Z,3.67
2018-12-06T19:50:12.217Z,3.70
2018-12-06T19:52:40.672Z,3.73
2018-12-06T19:55:09.163Z,3.90
2018-12-06T19:57:37.635Z,3.00
2018-12-06T20:00:08.474Z,3.10
2018-12-06T20:02:37.030Z,2.73
2018-12-06T20:05:06.202Z,3.43
2018-12-06T20:07:34.640Z,3.07
2018-12-06T20:10:03.404Z,2.70
2018-12-06T20:12:31.859Z,3.10
2018-12-06T20:15:00.239Z,3.83
2018-12-06T20:17:28.823Z,3.40
2018-12-06T20:19:57.185Z,3.37
2018-12-06T20:22:25.595Z,3.23
2018-12-06T20:24:53.957Z,3.43
2018-12-06T20:27:22.319Z,2.93
2018-12-06T20:29:50.716Z,4.13
2018-12-06T20:32:19.134Z,3.27
2018-12-06T20:34:47.541Z,3.10
2018-12-06T20:37:16.060Z,4.30
2018-12-06T20:39:44.430Z,3.40
2018-12-06T20:42:13.372Z,2.93
2018-12-06T20:44:41.772Z,2.90
2018-12-06T20:47:12.592Z,3.23
2018-12-06T20:49:41.028Z,3.10
2018-12-06T20:52:09.441Z,3.27
2018-12-06T20:54:37.859Z,2.97
2018-12-06T20:57:06.224Z,3.43
2018-12-06T20:59:34.752Z,2.90
2018-12-06T21:02:03.135Z,3.27
2018-12-06T21:04:31.533Z,3.30
2018-12-06T21:06:59.982Z,2.77
2018-12-06T21:09:28.343Z,2.93
2018-12-06T21:11:56.744Z,2.93
2018-12-06T21:14:25.137Z,3.00
2018-12-06T21:16:53.509Z,3.27
2018-12-06T21:19:22.007Z,3.30
2018-12-06T21:21:50.368Z,3.40
2018-12-06T21:24:18.757Z,3.73
2018-12-06T21:26:47.133Z,2.93
2018-12-06T21:29:15.531Z,3.10
2018-12-06T21:31:44.216Z,4.40
2018-12-06T21:34:12.740Z,3.90
2018-12-06T21:36:41.117Z,3.10
2018-12-06T21:39:09.489Z,3.50
2018-12-06T21:41:37.887Z,3.10
2018-12-06T21:44:06.247Z,2.80
2018-12-06T21:46:34.653Z,3.23
2018-12-06T21:49:03.034Z,3.33
2018-12-06T21:51:31.454Z,2.50
2018-12-06T21:53:59.825Z,2.40
2018-12-06T21:56:28.212Z,3.03
2018-12-06T21:58:56.578Z,3.97
2018-12-06T22:01:24.959Z,2.10
2018-12-06T22:03:53.344Z,2.43
2018-12-06T22:06:21.731Z,2.13
2018-12-06T22:08:50.092Z,2.17
2018-12-06T22:11:18.604Z,2.80
2018-12-06T22:13:47.079Z,2.50
2018-12-06T22:16:15.490Z,2.80
2018-12-06T22:18:44.141Z,4.20
2018-12-06T22:21:12.514Z,2.90
2018-12-06T22:23:40.876Z,3.40
2018-12-06T22:26:09.260Z,3.40
2018-12-06T22:28:37.621Z,4.10
2018-12-06T22:31:06.097Z,3.27
2018-12-06T22:33:34.481Z,2.63
2018-12-06T22:36:02.860Z,3.10
2018-12-06T22:38:34.265Z,2.67
2018-12-06T22:41:02.161Z,2.30
2018-12-06T22:43:30.562Z,2.00
2018-12-06T22:46:00.592Z,2.40
2018-12-06T22:48:29.129Z,2.50
2018-12-06T22:50:57.605Z,2.63
2018-12-06T22:53:26.366Z,2.23
2018-12-06T22:55:54.824Z,2.87
2018-12-06T22:58:23.197Z,2.30
2018-12-06T23:00:56.275Z,2.30
2018-12-06T23:03:25.103Z,3.07
2018-12-06T23:05:54.152Z,2.70
2018-12-06T23:08:22.548Z,2.60
2018-12-06T23:10:51.097Z,2.80
2018-12-06T23:13:19.473Z,2.90
2018-12-06T23:15:47.988Z,3.10
2018-12-06T23:18:16.376Z,3.20
2018-12-06T23:20:44.743Z,2.80
2018-12-06T23:23:13.106Z,3.30
2018-12-06T23:25:41.447Z,3.03
2018-12-06T23:28:09.817Z,2.93
2018-12-06T23:30:38.165Z,2.97
2018-12-06T23:33:06.547Z,3.00
2018-12-06T23:35:34.903Z,3.20
2018-12-06T23:38:03.293Z,2.97
2018-12-06T23:40:32.361Z,3.20
2018-12-06T23:43:00.757Z,3.10
2018-12-06T23:45:29.125Z,3.00
2018-12-06T23:47:57.518Z,2.63
2018-12-06T23:50:25.940Z,3.40
2018-12-06T23:52:54.355Z,3.20
2018-12-06T23:55:22.729Z,3.10
2018-12-06T23:57:51.117Z,2.70
